Arlington, Mississippi
Current Conditions -  °F | °C
As of 6:35 AM on Saturday 01 Nov 2014 (Local Time) from K1R7 Reporting Station
Clear Clear  
Wind Chill: 30°   Ceiling: Unl
Heat Index: 36°   Visibility: 10mi
Dew Point: 27°   Wind: 7mph
Humidity: 70%   Direction: 350°N
Pressure: 30.34"   Gusts: NA
Location:  31.4439°N, 90.4692°W
Report Text: K1R7 011135Z AUTO 35006KT 10SM CLR 02/M03 A3034 RMK AO2
Loading
Personal Weather Stations






























Interactive Weather Map
Tropical Storm Tracking
New forecast layout! Learn more

10-Day Weather Forecast

Advertisements
Track Severe Weather on mobile